createdAt,value
2023-05-08T00:02:26.646Z,3.40
2023-05-08T00:04:59.551Z,3.20
2023-05-08T00:07:30.903Z,3.30
2023-05-08T00:10:04.187Z,3.50
2023-05-08T00:12:36.925Z,3.10
2023-05-08T00:15:07.644Z,2.60
2023-05-08T00:17:36.792Z,2.70
2023-05-08T00:20:10.951Z,2.50
2023-05-08T00:22:42.528Z,3.00
2023-05-08T00:25:17.328Z,2.00
2023-05-08T00:27:46.518Z,1.90
2023-05-08T00:30:32.743Z,2.00
2023-05-08T00:33:05.573Z,2.00
2023-05-08T00:35:39.809Z,2.30
2023-05-08T00:38:09.092Z,2.20
2023-05-08T00:40:46.103Z,2.30
2023-05-08T00:43:15.595Z,2.60
2023-05-08T00:45:48.808Z,2.30
2023-05-08T00:48:18.975Z,2.60
2023-05-08T00:50:51.523Z,1.80
2023-05-08T00:53:22.592Z,2.00
2023-05-08T00:55:52.520Z,2.50
2023-05-08T00:58:23.020Z,2.30
2023-05-08T01:00:55.074Z,2.30
2023-05-08T01:03:35.946Z,2.20
2023-05-08T01:06:10.769Z,2.70
2023-05-08T01:08:39.721Z,2.10
2023-05-08T01:11:30.159Z,2.70
2023-05-08T01:14:12.361Z,2.00
2023-05-08T01:17:10.341Z,1.80
2023-05-08T01:20:09.358Z,1.90
2023-05-08T01:22:56.870Z,1.80
2023-05-08T01:26:05.967Z,2.10
2023-05-08T01:28:58.437Z,1.80
2023-05-08T01:31:33.713Z,2.00
2023-05-08T01:34:15.650Z,2.20
2023-05-08T01:36:52.447Z,2.20
2023-05-08T01:39:35.502Z,2.10
2023-05-08T01:42:30.405Z,2.20
2023-05-08T01:45:01.799Z,2.00
2023-05-08T01:47:34.746Z,2.10
2023-05-08T01:50:06.912Z,2.30
2023-05-08T01:52:49.301Z,2.20
2023-05-08T01:55:27.151Z,2.10
2023-05-08T01:57:59.695Z,2.20
2023-05-08T02:00:32.157Z,2.50
2023-05-08T02:03:01.929Z,2.50
2023-05-08T02:05:34.537Z,2.10
2023-05-08T02:08:02.833Z,2.20
2023-05-08T02:10:32.908Z,2.50
2023-05-08T02:13:04.608Z,2.00
2023-05-08T02:15:38.070Z,2.50
2023-05-08T02:18:10.371Z,1.80
2023-05-08T02:20:44.249Z,2.00
2023-05-08T02:23:17.314Z,2.50
2023-05-08T02:25:46.639Z,2.60
2023-05-08T02:28:15.906Z,2.20
2023-05-08T02:30:51.658Z,2.30
2023-05-08T02:33:25.260Z,2.00
2023-05-08T02:35:56.400Z,1.90
2023-05-08T02:38:25.271Z,1.90
2023-05-08T02:43:36.492Z,2.50
2023-05-08T02:46:13.868Z,3.20
2023-05-08T02:49:00.823Z,1.90
2023-05-08T02:52:12.574Z,2.10
2023-05-08T02:55:33.832Z,2.30
2023-05-08T02:58:24.179Z,2.00
2023-05-08T03:00:59.826Z,2.60
2023-05-08T03:03:49.648Z,2.90
2023-05-08T03:06:24.146Z,1.70
2023-05-08T03:08:54.232Z,1.70
2023-05-08T03:11:28.409Z,2.40
2023-05-08T03:14:02.761Z,2.10
2023-05-08T03:16:37.021Z,2.30
2023-05-08T03:19:34.942Z,2.10
2023-05-08T03:22:06.383Z,2.80
2023-05-08T03:24:37.266Z,2.00
2023-05-08T03:27:05.917Z,2.60
2023-05-08T03:29:42.123Z,2.00
2023-05-08T03:32:12.660Z,2.30
2023-05-08T03:34:48.408Z,2.20
2023-05-08T03:37:20.166Z,1.80
2023-05-08T03:39:52.407Z,1.80
2023-05-08T03:42:24.982Z,2.10
2023-05-08T03:44:55.841Z,2.10
2023-05-08T03:47:26.504Z,2.00
2023-05-08T03:49:57.161Z,1.80
2023-05-08T03:52:33.823Z,1.70
2023-05-08T03:58:25.050Z,2.40
2023-05-08T04:01:27.909Z,2.30
2023-05-08T04:04:12.015Z,2.50
2023-05-08T04:07:31.031Z,2.00
2023-05-08T04:10:37.788Z,2.60
2023-05-08T04:13:29.579Z,2.10
2023-05-08T04:16:23.007Z,1.90
2023-05-08T04:19:02.055Z,1.80
2023-05-08T04:21:32.150Z,1.70
2023-05-08T04:24:02.733Z,2.40
2023-05-08T04:26:34.742Z,1.80
2023-05-08T04:29:32.103Z,2.30
2023-05-08T04:32:08.842Z,2.20
2023-05-08T04:34:47.730Z,1.90
2023-05-08T04:37:32.207Z,2.00
2023-05-08T04:40:11.081Z,1.80
2023-05-08T04:42:50.380Z,1.90
2023-05-08T04:45:51.330Z,1.80
2023-05-08T04:48:31.555Z,2.10
2023-05-08T04:51:07.783Z,2.10
2023-05-08T04:53:47.318Z,1.90
2023-05-08T04:56:15.032Z,1.90
2023-05-08T04:58:55.049Z,1.90
2023-05-08T05:01:49.563Z,2.00
2023-05-08T05:04:32.816Z,2.30
2023-05-08T05:07:31.769Z,2.30
2023-05-08T05:10:03.314Z,2.00
2023-05-08T05:12:48.033Z,2.40
2023-05-08T05:15:32.939Z,1.90
2023-05-08T05:18:20.731Z,2.20
2023-05-08T05:20:56.357Z,2.40
2023-05-08T05:23:56.145Z,1.80
2023-05-08T05:26:28.412Z,1.90
2023-05-08T05:29:23.718Z,2.10
2023-05-08T05:34:40.382Z,1.80
2023-05-08T05:37:14.796Z,1.90
2023-05-08T05:39:48.382Z,2.10
2023-05-08T05:42:18.692Z,2.70
2023-05-08T05:45:18.862Z,1.80
2023-05-08T05:47:57.771Z,2.00
2023-05-08T05:50:52.833Z,2.30
2023-05-08T05:53:32.111Z,2.00
2023-05-08T05:56:11.202Z,1.90
2023-05-08T05:58:44.426Z,1.90
2023-05-08T06:01:17.519Z,1.80
2023-05-08T06:03:49.187Z,1.80
2023-05-08T06:06:43.290Z,2.40
2023-05-08T06:09:20.958Z,2.00
2023-05-08T06:12:07.848Z,1.60
2023-05-08T06:14:48.131Z,1.80
2023-05-08T06:17:58.451Z,2.40
2023-05-08T06:20:28.337Z,2.10
2023-05-08T06:23:12.694Z,1.70
2023-05-08T06:26:11.031Z,2.00
2023-05-08T06:28:47.704Z,2.10
2023-05-08T06:31:27.516Z,2.00
2023-05-08T06:33:59.415Z,2.20
2023-05-08T06:36:33.086Z,1.90
2023-05-08T06:39:12.238Z,1.60
2023-05-08T06:41:51.497Z,1.80
2023-05-08T06:44:32.238Z,1.80
2023-05-08T06:47:03.479Z,1.90
2023-05-08T06:49:42.670Z,1.90
2023-05-08T06:52:49.490Z,1.90
2023-05-08T06:55:50.085Z,1.90
2023-05-08T06:58:39.354Z,1.70
2023-05-08T07:01:15.026Z,1.90
2023-05-08T07:04:54.768Z,2.70
2023-05-08T07:11:21.505Z,1.70
2023-05-08T07:13:59.867Z,1.80
2023-05-08T07:17:30.865Z,1.60
2023-05-08T07:21:00.748Z,1.90
2023-05-08T07:24:06.937Z,1.80
2023-05-08T07:26:37.852Z,1.60
2023-05-08T07:30:05.328Z,2.00
2023-05-08T07:32:55.860Z,1.60
2023-05-08T07:35:31.005Z,1.70
2023-05-08T07:38:08.488Z,1.90
2023-05-08T07:41:00.967Z,1.60
2023-05-08T07:43:41.234Z,1.40
2023-05-08T07:46:30.630Z,1.80
2023-05-08T07:49:08.051Z,1.50
2023-05-08T07:51:45.035Z,1.50
2023-05-08T07:54:16.907Z,1.20
2023-05-08T07:56:56.331Z,2.20
2023-05-08T07:59:30.958Z,1.50
2023-05-08T08:02:09.972Z,2.60
2023-05-08T08:04:42.779Z,1.70
2023-05-08T08:07:23.402Z,1.60
2023-05-08T08:10:04.198Z,1.70
2023-05-08T08:12:38.733Z,1.50
2023-05-08T08:15:28.292Z,1.60
2023-05-08T08:18:02.758Z,1.40
2023-05-08T08:20:49.307Z,1.80
2023-05-08T08:23:19.803Z,1.20
2023-05-08T08:25:56.081Z,1.90
2023-05-08T08:28:29.260Z,1.40
2023-05-08T08:31:02.591Z,1.60
2023-05-08T08:33:42.596Z,1.80
2023-05-08T08:37:12.292Z,1.40
2023-05-08T08:39:45.921Z,2.10
2023-05-08T08:42:25.067Z,1.50
2023-05-08T08:44:56.067Z,1.50
2023-05-08T08:50:40.281Z,1.80
2023-05-08T08:53:45.574Z,1.50
2023-05-08T08:56:24.982Z,2.20
2023-05-08T08:59:05.450Z,1.90
2023-05-08T09:02:28.981Z,2.10
2023-05-08T09:05:05.142Z,1.60
2023-05-08T09:07:42.935Z,1.50
2023-05-08T09:10:26.463Z,1.60
2023-05-08T09:13:28.463Z,1.80
2023-05-08T09:16:18.648Z,1.60
2023-05-08T09:19:20.989Z,1.40
2023-05-08T09:22:49.025Z,1.40
2023-05-08T09:25:19.902Z,1.90
2023-05-08T09:27:56.878Z,1.50
2023-05-08T09:30:30.537Z,1.90
2023-05-08T09:33:13.977Z,1.80
2023-05-08T09:36:33.442Z,1.90
2023-05-08T09:39:13.469Z,1.50
2023-05-08T09:42:00.918Z,1.40
2023-05-08T09:44:53.971Z,2.00
2023-05-08T09:47:25.873Z,1.50
2023-05-08T09:50:26.793Z,1.70
2023-05-08T09:52:58.497Z,1.40
2023-05-08T09:55:51.433Z,1.40
2023-05-08T09:58:32.477Z,1.40
2023-05-08T10:01:12.366Z,1.60
2023-05-08T10:03:52.722Z,1.20
2023-05-08T10:06:55.904Z,1.30
2023-05-08T10:09:51.020Z,1.80
2023-05-08T10:12:48.886Z,1.50
2023-05-08T10:15:27.004Z,1.50
2023-05-08T10:18:07.790Z,1.20
2023-05-08T10:20:48.936Z,2.20
2023-05-08T10:23:21.167Z,1.50
2023-05-08T10:26:21.141Z,1.60
2023-05-08T10:29:00.626Z,1.50
2023-05-08T10:31:41.228Z,1.20
2023-05-08T10:34:21.305Z,1.60
2023-05-08T10:37:03.278Z,1.60
2023-05-08T10:40:06.656Z,1.10
2023-05-08T10:42:41.212Z,1.50
2023-05-08T10:45:55.151Z,2.10
2023-05-08T10:49:08.523Z,1.70
2023-05-08T10:52:50.015Z,1.20
2023-05-08T10:55:42.124Z,1.40
2023-05-08T10:58:49.298Z,1.80
2023-05-08T11:02:22.303Z,1.30
2023-05-08T11:05:16.738Z,1.40
2023-05-08T11:08:23.739Z,1.40
2023-05-08T11:11:43.137Z,1.40
2023-05-08T11:14:17.955Z,1.50
2023-05-08T11:17:09.986Z,1.20
2023-05-08T11:19:56.746Z,1.40
2023-05-08T11:22:33.628Z,1.40
2023-05-08T11:25:44.161Z,1.60
2023-05-08T11:28:16.086Z,1.70
2023-05-08T11:30:54.049Z,1.20
2023-05-08T11:33:44.404Z,1.90
2023-05-08T11:36:40.143Z,1.50
2023-05-08T11:39:20.940Z,1.80
2023-05-08T11:42:38.175Z,1.40
2023-05-08T11:45:16.342Z,1.40
2023-05-08T11:47:58.711Z,1.40
2023-05-08T11:50:31.567Z,1.80
2023-05-08T11:53:22.585Z,1.70
2023-05-08T11:55:55.869Z,1.90
2023-05-08T11:59:24.388Z,2.30
2023-05-08T12:02:09.499Z,1.40
2023-05-08T12:05:28.413Z,1.30
2023-05-08T12:08:02.862Z,1.80
2023-05-08T12:11:00.310Z,1.30
2023-05-08T12:13:44.113Z,1.40
2023-05-08T12:16:16.590Z,1.40
2023-05-08T12:18:54.283Z,1.40
2023-05-08T12:22:00.002Z,1.70
2023-05-08T12:24:35.313Z,1.40
2023-05-08T12:27:15.440Z,1.80
2023-05-08T12:30:18.599Z,1.90
2023-05-08T12:32:55.017Z,1.50
2023-05-08T12:35:30.826Z,1.50
2023-05-08T12:38:17.697Z,1.60
2023-05-08T12:41:05.998Z,1.30
2023-05-08T12:44:28.870Z,1.40
2023-05-08T12:47:13.628Z,1.60
2023-05-08T12:49:50.658Z,1.60
2023-05-08T12:53:42.537Z,1.50
2023-05-08T12:56:23.940Z,1.40
2023-05-08T12:59:04.321Z,1.80
2023-05-08T13:01:51.415Z,1.10
2023-05-08T13:05:09.193Z,1.50
2023-05-08T13:08:19.295Z,1.40
2023-05-08T13:11:17.276Z,1.30
2023-05-08T13:13:56.233Z,1.70
2023-05-08T13:16:53.499Z,1.60
2023-05-08T13:19:31.371Z,1.50
2023-05-08T13:22:12.435Z,1.70
2023-05-08T13:24:51.392Z,1.30
2023-05-08T13:27:45.912Z,1.30
2023-05-08T13:30:51.489Z,1.40
2023-05-08T13:34:18.757Z,1.40
2023-05-08T13:37:51.354Z,1.20
2023-05-08T13:41:42.935Z,1.40
2023-05-08T13:44:46.382Z,1.70
2023-05-08T13:48:13.378Z,1.40
2023-05-08T13:51:09.488Z,1.10
2023-05-08T13:54:06.812Z,1.30
2023-05-08T13:57:34.462Z,1.40
2023-05-08T14:00:43.318Z,1.50
2023-05-08T14:04:04.621Z,1.40
2023-05-08T14:07:34.233Z,1.80
2023-05-08T14:10:29.211Z,1.90
2023-05-08T14:13:34.232Z,1.50
2023-05-08T14:16:16.262Z,1.30
2023-05-08T14:19:04.807Z,1.60
2023-05-08T14:21:54.887Z,1.40
2023-05-08T14:24:38.413Z,1.60
2023-05-08T14:32:34.006Z,1.70
2023-05-08T14:35:22.670Z,1.90
2023-05-08T14:38:23.866Z,1.80
2023-05-08T14:41:26.645Z,1.30
2023-05-08T14:44:05.205Z,1.40
2023-05-08T14:47:38.497Z,1.90
2023-05-08T14:50:27.727Z,1.40
2023-05-08T14:53:18.539Z,1.50
2023-05-08T14:59:31.748Z,1.90
2023-05-08T15:07:05.013Z,1.70
2023-05-08T15:09:52.906Z,1.40
2023-05-08T15:30:03.190Z,1.90
2023-05-08T16:08:57.726Z,1.50
2023-05-08T16:12:24.283Z,1.70
2023-05-08T16:23:30.408Z,2.00
2023-05-08T16:26:11.193Z,2.40
2023-05-08T16:29:07.227Z,2.80
2023-05-08T16:32:02.755Z,2.20
2023-05-08T16:34:38.871Z,2.40
2023-05-08T16:37:29.498Z,2.60
2023-05-08T16:40:13.668Z,2.30
2023-05-08T16:43:50.528Z,5.70
2023-05-08T16:47:14.599Z,2.10
2023-05-08T16:49:54.701Z,2.20
2023-05-08T16:52:35.517Z,2.40
2023-05-08T16:55:13.712Z,3.00
2023-05-08T16:59:05.153Z,2.40
2023-05-08T17:02:21.700Z,2.80
2023-05-08T17:05:18.792Z,3.60
2023-05-08T17:23:06.565Z,2.20
2023-05-08T17:26:12.205Z,2.70
2023-05-08T17:29:03.360Z,2.70
2023-05-08T17:31:48.265Z,2.50
2023-05-08T17:34:55.205Z,2.80
2023-05-08T17:38:18.413Z,1.60
2023-05-08T17:41:25.580Z,2.00
2023-05-08T17:45:04.872Z,1.80
2023-05-08T17:47:54.633Z,2.60
2023-05-08T17:52:37.559Z,2.10
2023-05-08T17:55:31.772Z,1.50
2023-05-08T18:28:37.192Z,2.10
2023-05-08T18:31:24.105Z,1.50
2023-05-08T18:38:25.458Z,1.70
2023-05-08T18:41:49.247Z,1.50
2023-05-08T18:44:28.955Z,1.90
2023-05-08T18:47:59.494Z,2.00
2023-05-08T18:50:44.772Z,2.40
2023-05-08T18:53:25.760Z,2.10
2023-05-08T18:57:14.902Z,2.30
2023-05-08T19:00:20.253Z,2.20
2023-05-08T19:03:20.996Z,2.40
2023-05-08T19:09:09.548Z,2.40
2023-05-08T19:12:03.174Z,2.20
2023-05-08T19:17:55.659Z,2.20
2023-05-08T19:25:15.484Z,2.40
2023-05-08T19:28:07.578Z,1.90
2023-05-08T19:31:34.782Z,2.10
2023-05-08T19:35:23.630Z,2.20
2023-05-08T19:39:25.977Z,2.40
2023-05-08T19:42:15.984Z,2.10
2023-05-08T19:50:03.565Z,2.10
2023-05-08T19:52:50.086Z,2.00
2023-05-08T19:55:32.733Z,2.00
2023-05-08T19:58:33.428Z,2.60
2023-05-08T20:01:40.520Z,1.90
2023-05-08T20:05:18.747Z,1.70
2023-05-08T20:08:00.206Z,1.90
2023-05-08T20:10:52.020Z,2.30
2023-05-08T20:13:35.223Z,2.40
2023-05-08T20:16:29.786Z,2.00
2023-05-08T20:19:28.431Z,2.30
2023-05-08T20:30:43.499Z,2.20
2023-05-08T20:40:58.207Z,2.10
2023-05-08T20:43:51.949Z,2.00
2023-05-08T20:46:44.471Z,2.30
2023-05-08T20:49:28.830Z,2.90
2023-05-08T20:52:15.585Z,2.90
2023-05-08T20:55:45.190Z,2.50
2023-05-08T20:58:42.712Z,2.60
2023-05-08T21:01:21.139Z,2.30
2023-05-08T21:05:21.791Z,2.70
2023-05-08T21:08:01.472Z,2.60
2023-05-08T21:11:13.775Z,4.20
2023-05-08T21:14:00.278Z,3.50
2023-05-08T21:16:35.010Z,3.50
2023-05-08T21:19:15.728Z,3.30
2023-05-08T21:22:01.826Z,2.90
2023-05-08T21:24:36.121Z,3.40
2023-05-08T21:27:15.785Z,3.10
2023-05-08T21:30:00.237Z,3.40
2023-05-08T21:32:35.436Z,2.80
2023-05-08T21:35:14.250Z,3.00
2023-05-08T21:38:36.417Z,2.70
2023-05-08T21:41:09.444Z,2.60
2023-05-08T21:43:49.084Z,2.70
2023-05-08T21:46:46.065Z,3.40
2023-05-08T21:49:25.344Z,3.00
2023-05-08T21:52:01.333Z,2.60
2023-05-08T21:54:46.568Z,2.40
2023-05-08T21:57:43.252Z,2.80
2023-05-08T22:00:22.035Z,2.50
2023-05-08T22:02:57.774Z,2.90
2023-05-08T22:05:38.439Z,2.20
2023-05-08T22:08:39.309Z,2.20
2023-05-08T22:11:09.500Z,2.30
2023-05-08T22:13:40.358Z,2.00
2023-05-08T22:16:26.109Z,2.60
2023-05-08T22:19:08.282Z,2.10
2023-05-08T22:21:44.371Z,2.40
2023-05-08T22:24:20.502Z,2.20
2023-05-08T22:27:02.339Z,2.10
2023-05-08T22:30:56.622Z,2.10
2023-05-08T22:33:34.108Z,2.40
2023-05-08T22:36:12.996Z,1.80
2023-05-08T22:38:46.260Z,1.80
2023-05-08T22:41:23.273Z,2.70
2023-05-08T22:44:34.908Z,2.40
2023-05-08T22:47:19.072Z,2.60
2023-05-08T22:50:00.823Z,2.50
2023-05-08T22:52:34.999Z,2.20
2023-05-08T22:55:22.564Z,2.20
2023-05-08T22:58:17.011Z,3.00
2023-05-08T23:00:56.529Z,2.50
2023-05-08T23:03:33.747Z,2.60
2023-05-08T23:06:11.507Z,1.80
2023-05-08T23:08:46.394Z,2.60
2023-05-08T23:11:27.316Z,1.80
2023-05-08T23:14:35.414Z,2.90
2023-05-08T23:20:43.141Z,2.10
2023-05-08T23:23:34.054Z,2.00
2023-05-08T23:26:09.198Z,2.20
2023-05-08T23:28:40.630Z,2.50
2023-05-08T23:31:27.611Z,2.90
2023-05-08T23:34:03.981Z,2.50
2023-05-08T23:36:48.376Z,2.10
2023-05-08T23:39:51.636Z,2.00
2023-05-08T23:43:13.529Z,2.70
2023-05-08T23:45:48.947Z,2.60
2023-05-08T23:48:25.882Z,2.20
2023-05-08T23:50:59.939Z,3.00
2023-05-08T23:53:38.501Z,2.20
2023-05-08T23:56:37.796Z,2.50
2023-05-08T23:59:12.885Z,2.60
